sensor_id;sensor_type;location;lat;lon;timestamp;pressure;altitude;pressure_sealevel;temperature;humidity
13387;BME280;6763;48.524;9.044;2024-02-26T00:00:27;95874.50;;;10.06;45.94
13387;BME280;6763;48.524;9.044;2024-02-26T00:02:54;95855.19;;;9.95;46.03
13387;BME280;6763;48.524;9.044;2024-02-26T00:05:19;95833.66;;;9.95;45.85
13387;BME280;6763;48.524;9.044;2024-02-26T00:07:44;95835.19;;;9.99;46.08
13387;BME280;6763;48.524;9.044;2024-02-26T00:10:10;95868.78;;;10.18;45.69
13387;BME280;6763;48.524;9.044;2024-02-26T00:12:35;95849.41;;;10.08;45.75
13387;BME280;6763;48.524;9.044;2024-02-26T00:15:00;95868.78;;;10.18;45.65
13387;BME280;6763;48.524;9.044;2024-02-26T00:17:26;95862.72;;;10.19;45.55
13387;BME280;6763;48.524;9.044;2024-02-26T00:19:51;95862.75;;;10.17;45.82
13387;BME280;6763;48.524;9.044;2024-02-26T00:22:16;95846.44;;;10.17;45.74
13387;BME280;6763;48.524;9.044;2024-02-26T00:24:42;95838.75;;;10.15;45.76
13387;BME280;6763;48.524;9.044;2024-02-26T00:27:07;95852.22;;;10.22;45.48
13387;BME280;6763;48.524;9.044;2024-02-26T00:29:32;95843.69;;;10.20;45.63
13387;BME280;6763;48.524;9.044;2024-02-26T00:31:58;95849.66;;;10.22;45.56
13387;BME280;6763;48.524;9.044;2024-02-26T00:34:24;95857.03;;;10.29;45.34
13387;BME280;6763;48.524;9.044;2024-02-26T00:36:49;95842.66;;;10.24;45.76
13387;BME280;6763;48.524;9.044;2024-02-26T00:39:14;95842.28;;;10.31;45.51
13387;BME280;6763;48.524;9.044;2024-02-26T00:41:40;95850.72;;;10.35;45.75
13387;BME280;6763;48.524;9.044;2024-02-26T00:44:05;95831.22;;;10.28;45.85
13387;BME280;6763;48.524;9.044;2024-02-26T00:46:31;95839.31;;;10.39;45.88
13387;BME280;6763;48.524;9.044;2024-02-26T00:48:56;95831.69;;;10.36;45.63
13387;BME280;6763;48.524;9.044;2024-02-26T00:51:21;95842.50;;;10.44;45.68
13387;BME280;6763;48.524;9.044;2024-02-26T00:53:47;95847.81;;;10.41;45.45
13387;BME280;6763;48.524;9.044;2024-02-26T00:56:12;95837.47;;;10.41;45.86
13387;BME280;6763;48.524;9.044;2024-02-26T00:58:37;95842.66;;;10.41;45.96
13387;BME280;6763;48.524;9.044;2024-02-26T01:01:03;95850.19;;;10.45;45.68
13387;BME280;6763;48.524;9.044;2024-02-26T01:03:28;95861.31;;;10.47;45.78
13387;BME280;6763;48.524;9.044;2024-02-26T01:05:54;95876.81;;;10.47;45.69
13387;BME280;6763;48.524;9.044;2024-02-26T01:08:19;95880.22;;;10.48;46.10
13387;BME280;6763;48.524;9.044;2024-02-26T01:10:44;95856.81;;;10.34;46.01
13387;BME280;6763;48.524;9.044;2024-02-26T01:13:10;95853.38;;;10.33;46.20
13387;BME280;6763;48.524;9.044;2024-02-26T01:15:35;95876.88;;;10.46;46.10
13387;BME280;6763;48.524;9.044;2024-02-26T01:18:01;95860.22;;;10.34;46.23
13387;BME280;6763;48.524;9.044;2024-02-26T01:20:26;95873.69;;;10.41;45.84
13387;BME280;6763;48.524;9.044;2024-02-26T01:22:51;95874.91;;;10.34;45.74
13387;BME280;6763;48.524;9.044;2024-02-26T01:25:16;95894.31;;;10.42;46.06
13387;BME280;6763;48.524;9.044;2024-02-26T01:27:42;95889.56;;;10.33;46.34
13387;BME280;6763;48.524;9.044;2024-02-26T01:30:09;95893.97;;;10.31;46.26
13387;BME280;6763;48.524;9.044;2024-02-26T01:32:35;95874.09;;;10.15;46.91
13387;BME280;6763;48.524;9.044;2024-02-26T01:35:01;95878.13;;;10.20;46.70
13387;BME280;6763;48.524;9.044;2024-02-26T01:37:28;95876.47;;;10.19;46.72
13387;BME280;6763;48.524;9.044;2024-02-26T01:39:55;95867.13;;;10.17;46.75
13387;BME280;6763;48.524;9.044;2024-02-26T01:42:20;95889.53;;;10.16;47.51
13387;BME280;6763;48.524;9.044;2024-02-26T01:44:45;95867.59;;;10.06;48.13
13387;BME280;6763;48.524;9.044;2024-02-26T01:47:12;95858.38;;;10.01;47.94
13387;BME280;6763;48.524;9.044;2024-02-26T01:49:39;95832.22;;;9.89;49.14
13387;BME280;6763;48.524;9.044;2024-02-26T01:52:06;95839.25;;;9.86;47.35
13387;BME280;6763;48.524;9.044;2024-02-26T01:54:35;95898.03;;;9.99;47.88
13387;BME280;6763;48.524;9.044;2024-02-26T01:57:01;95880.66;;;10.03;46.66
13387;BME280;6763;48.524;9.044;2024-02-26T01:59:28;95888.00;;;10.12;45.98
13387;BME280;6763;48.524;9.044;2024-02-26T02:01:55;95903.97;;;10.39;45.90
13387;BME280;6763;48.524;9.044;2024-02-26T02:04:23;95887.53;;;10.40;46.11
13387;BME280;6763;48.524;9.044;2024-02-26T02:06:48;95906.88;;;10.50;45.25
13387;BME280;6763;48.524;9.044;2024-02-26T02:09:14;95924.66;;;10.56;45.44
13387;BME280;6763;48.524;9.044;2024-02-26T02:11:40;95924.22;;;10.65;45.15
13387;BME280;6763;48.524;9.044;2024-02-26T02:14:06;95921.56;;;10.67;45.25
13387;BME280;6763;48.524;9.044;2024-02-26T02:16:31;95922.78;;;10.77;45.46
13387;BME280;6763;48.524;9.044;2024-02-26T02:18:58;95903.00;;;10.76;45.51
13387;BME280;6763;48.524;9.044;2024-02-26T02:21:23;95892.44;;;10.80;45.22
13387;BME280;6763;48.524;9.044;2024-02-26T02:23:49;95878.88;;;10.75;45.49
13387;BME280;6763;48.524;9.044;2024-02-26T02:26:15;95860.16;;;10.70;45.33
13387;BME280;6763;48.524;9.044;2024-02-26T02:28:41;95862.47;;;10.76;44.65
13387;BME280;6763;48.524;9.044;2024-02-26T02:31:06;95875.59;;;10.89;44.86
13387;BME280;6763;48.524;9.044;2024-02-26T02:33:33;95832.06;;;10.80;44.67
13387;BME280;6763;48.524;9.044;2024-02-26T02:35:59;95868.97;;;11.00;44.50
13387;BME280;6763;48.524;9.044;2024-02-26T02:38:24;95912.56;;;11.08;44.68
13387;BME280;6763;48.524;9.044;2024-02-26T02:40:53;95910.53;;;11.14;44.13
13387;BME280;6763;48.524;9.044;2024-02-26T02:43:19;95883.03;;;11.12;44.35
13387;BME280;6763;48.524;9.044;2024-02-26T02:45:44;95867.91;;;11.04;43.84
13387;BME280;6763;48.524;9.044;2024-02-26T02:48:11;95894.75;;;11.19;44.36
13387;BME280;6763;48.524;9.044;2024-02-26T02:50:36;95897.50;;;11.16;43.72
13387;BME280;6763;48.524;9.044;2024-02-26T02:53:01;95901.69;;;11.18;44.06
13387;BME280;6763;48.524;9.044;2024-02-26T02:55:27;95903.44;;;11.18;43.80
13387;BME280;6763;48.524;9.044;2024-02-26T02:57:53;95894.91;;;11.16;44.30
13387;BME280;6763;48.524;9.044;2024-02-26T03:00:18;95892.25;;;11.17;44.30
13387;BME280;6763;48.524;9.044;2024-02-26T03:02:43;95876.72;;;11.17;44.42
13387;BME280;6763;48.524;9.044;2024-02-26T03:05:10;95859.28;;;11.04;43.98
13387;BME280;6763;48.524;9.044;2024-02-26T03:07:35;95869.94;;;10.98;44.13
13387;BME280;6763;48.524;9.044;2024-02-26T03:10:00;95865.72;;;10.97;44.03
13387;BME280;6763;48.524;9.044;2024-02-26T03:12:26;95859.94;;;10.92;44.73
13387;BME280;6763;48.524;9.044;2024-02-26T03:14:52;95862.53;;;10.92;44.71
13387;BME280;6763;48.524;9.044;2024-02-26T03:17:19;95855.75;;;10.89;44.75
13387;BME280;6763;48.524;9.044;2024-02-26T03:19:44;95849.72;;;10.89;45.26
13387;BME280;6763;48.524;9.044;2024-02-26T03:22:18;95819.06;;;10.81;45.67
13387;BME280;6763;48.524;9.044;2024-02-26T03:24:43;95797.47;;;10.65;45.22
13387;BME280;6763;48.524;9.044;2024-02-26T03:27:08;95836.84;;;10.87;45.56
13387;BME280;6763;48.524;9.044;2024-02-26T03:29:35;95832.81;;;10.82;45.58
13387;BME280;6763;48.524;9.044;2024-02-26T03:32:00;95839.69;;;10.83;46.00
13387;BME280;6763;48.524;9.044;2024-02-26T03:34:26;95845.69;;;10.83;45.73
13387;BME280;6763;48.524;9.044;2024-02-26T03:36:52;95843.13;;;10.83;45.27
13387;BME280;6763;48.524;9.044;2024-02-26T03:39:17;95835.25;;;10.85;45.65
13387;BME280;6763;48.524;9.044;2024-02-26T03:41:42;95843.56;;;10.91;46.02
13387;BME280;6763;48.524;9.044;2024-02-26T03:44:08;95833.28;;;10.90;45.65
13387;BME280;6763;48.524;9.044;2024-02-26T03:46:33;95811.22;;;10.83;45.75
13387;BME280;6763;48.524;9.044;2024-02-26T03:48:58;95827.69;;;10.97;46.01
13387;BME280;6763;48.524;9.044;2024-02-26T03:51:23;95832.13;;;10.95;45.59
13387;BME280;6763;48.524;9.044;2024-02-26T03:53:49;95842.31;;;10.98;45.94
13387;BME280;6763;48.524;9.044;2024-02-26T03:56:14;95828.34;;;10.85;45.92
13387;BME280;6763;48.524;9.044;2024-02-26T03:58:39;95845.66;;;11.00;45.49
13387;BME280;6763;48.524;9.044;2024-02-26T04:01:09;95854.97;;;11.04;45.44
13387;BME280;6763;48.524;9.044;2024-02-26T04:03:34;95867.81;;;11.06;45.72
13387;BME280;6763;48.524;9.044;2024-02-26T04:06:00;95870.50;;;11.04;45.72
13387;BME280;6763;48.524;9.044;2024-02-26T04:08:25;95870.56;;;11.03;45.90
13387;BME280;6763;48.524;9.044;2024-02-26T04:10:50;95883.03;;;10.95;46.13
13387;BME280;6763;48.524;9.044;2024-02-26T04:13:17;95879.13;;;10.71;46.82
13387;BME280;6763;48.524;9.044;2024-02-26T04:15:42;95892.19;;;10.68;47.06
13387;BME280;6763;48.524;9.044;2024-02-26T04:18:08;95884.50;;;10.66;47.20
13387;BME280;6763;48.524;9.044;2024-02-26T04:20:33;95876.81;;;10.65;47.11
13387;BME280;6763;48.524;9.044;2024-02-26T04:22:58;95893.09;;;10.67;47.24
13387;BME280;6763;48.524;9.044;2024-02-26T04:25:24;95874.00;;;10.69;46.89
13387;BME280;6763;48.524;9.044;2024-02-26T04:27:49;95869.75;;;10.68;47.68
13387;BME280;6763;48.524;9.044;2024-02-26T04:30:14;95863.13;;;10.63;47.73
13387;BME280;6763;48.524;9.044;2024-02-26T04:32:39;95858.88;;;10.62;47.56
13387;BME280;6763;48.524;9.044;2024-02-26T04:35:05;95847.91;;;10.56;47.43
13387;BME280;6763;48.524;9.044;2024-02-26T04:37:30;95853.69;;;10.62;47.52
13387;BME280;6763;48.524;9.044;2024-02-26T04:39:59;95858.56;;;10.68;47.74
13387;BME280;6763;48.524;9.044;2024-02-26T04:42:25;95844.88;;;10.66;47.27
13387;BME280;6763;48.524;9.044;2024-02-26T04:44:50;95837.56;;;10.74;47.58
13387;BME280;6763;48.524;9.044;2024-02-26T04:47:16;95849.19;;;10.82;47.13
13387;BME280;6763;48.524;9.044;2024-02-26T04:49:41;95841.22;;;10.87;47.14
13387;BME280;6763;48.524;9.044;2024-02-26T04:52:06;95838.69;;;10.85;47.12
13387;BME280;6763;48.524;9.044;2024-02-26T04:54:32;95849.41;;;10.95;46.75
13387;BME280;6763;48.524;9.044;2024-02-26T04:56:57;95839.22;;;10.92;46.58
13387;BME280;6763;48.524;9.044;2024-02-26T04:59:22;95850.63;;;11.05;46.90
13387;BME280;6763;48.524;9.044;2024-02-26T05:01:47;95840.72;;;10.96;46.57
13387;BME280;6763;48.524;9.044;2024-02-26T05:04:13;95870.34;;;11.07;46.79
13387;BME280;6763;48.524;9.044;2024-02-26T05:06:38;95869.66;;;11.04;47.04
13387;BME280;6763;48.524;9.044;2024-02-26T05:09:03;95878.88;;;11.09;47.33
13387;BME280;6763;48.524;9.044;2024-02-26T05:11:29;95902.16;;;11.09;47.56
13387;BME280;6763;48.524;9.044;2024-02-26T05:13:54;95916.09;;;11.07;47.08
13387;BME280;6763;48.524;9.044;2024-02-26T05:16:19;95902.00;;;10.95;47.26
13387;BME280;6763;48.524;9.044;2024-02-26T05:18:46;95888.69;;;10.86;47.94
13387;BME280;6763;48.524;9.044;2024-02-26T05:21:12;95918.47;;;10.94;47.73
13387;BME280;6763;48.524;9.044;2024-02-26T05:23:37;95914.63;;;10.84;48.09
13387;BME280;6763;48.524;9.044;2024-02-26T05:26:02;95900.19;;;10.63;48.48
13387;BME280;6763;48.524;9.044;2024-02-26T05:28:28;95903.59;;;10.64;48.53
13387;BME280;6763;48.524;9.044;2024-02-26T05:30:53;95897.75;;;10.60;48.69
13387;BME280;6763;48.524;9.044;2024-02-26T05:33:19;95888.31;;;10.59;48.62
13387;BME280;6763;48.524;9.044;2024-02-26T05:35:44;95885.94;;;10.54;48.87
13387;BME280;6763;48.524;9.044;2024-02-26T05:38:09;95894.69;;;10.52;48.73
13387;BME280;6763;48.524;9.044;2024-02-26T05:40:35;95895.34;;;10.38;49.31
13387;BME280;6763;48.524;9.044;2024-02-26T05:43:00;95912.00;;;10.33;49.59
13387;BME280;6763;48.524;9.044;2024-02-26T05:45:26;95908.16;;;10.23;49.82
13387;BME280;6763;48.524;9.044;2024-02-26T05:47:51;95902.63;;;10.12;49.88
13387;BME280;6763;48.524;9.044;2024-02-26T05:50:17;95902.50;;;9.96;49.91
13387;BME280;6763;48.524;9.044;2024-02-26T05:52:42;95912.22;;;9.91;49.91
13387;BME280;6763;48.524;9.044;2024-02-26T05:55:08;95919.56;;;9.81;49.95
13387;BME280;6763;48.524;9.044;2024-02-26T05:57:34;95926.59;;;9.78;50.75
13387;BME280;6763;48.524;9.044;2024-02-26T06:00:00;95916.81;;;9.66;51.88
13387;BME280;6763;48.524;9.044;2024-02-26T06:02:29;95933.44;;;9.79;51.60
13387;BME280;6763;48.524;9.044;2024-02-26T06:04:54;95917.09;;;9.78;51.63
13387;BME280;6763;48.524;9.044;2024-02-26T06:07:20;95925.22;;;9.89;51.78
13387;BME280;6763;48.524;9.044;2024-02-26T06:09:45;95920.81;;;9.91;51.65
13387;BME280;6763;48.524;9.044;2024-02-26T06:12:10;95916.22;;;9.98;51.93
13387;BME280;6763;48.524;9.044;2024-02-26T06:14:35;95924.81;;;9.98;52.21
13387;BME280;6763;48.524;9.044;2024-02-26T06:17:01;95925.56;;;10.01;51.97
13387;BME280;6763;48.524;9.044;2024-02-26T06:19:26;95924.16;;;9.93;52.04
13387;BME280;6763;48.524;9.044;2024-02-26T06:21:51;95922.56;;;9.91;51.80
13387;BME280;6763;48.524;9.044;2024-02-26T06:24:17;95945.88;;;9.89;52.36
13387;BME280;6763;48.524;9.044;2024-02-26T06:26:42;95925.84;;;9.76;52.28
13387;BME280;6763;48.524;9.044;2024-02-26T06:29:07;95967.63;;;9.85;52.47
13387;BME280;6763;48.524;9.044;2024-02-26T06:31:32;95971.00;;;9.86;53.14
13387;BME280;6763;48.524;9.044;2024-02-26T06:33:58;95954.75;;;9.84;53.05
13387;BME280;6763;48.524;9.044;2024-02-26T06:36:23;95974.53;;;9.85;53.39
13387;BME280;6763;48.524;9.044;2024-02-26T06:38:48;95988.00;;;9.91;53.07
13387;BME280;6763;48.524;9.044;2024-02-26T06:41:14;95995.47;;;9.97;52.96
13387;BME280;6763;48.524;9.044;2024-02-26T06:43:39;95984.28;;;9.97;53.21
13387;BME280;6763;48.524;9.044;2024-02-26T06:46:06;95988.22;;;10.06;53.04
13387;BME280;6763;48.524;9.044;2024-02-26T06:48:31;95968.66;;;10.00;53.31
13387;BME280;6763;48.524;9.044;2024-02-26T06:50:56;95979.16;;;10.16;52.78
13387;BME280;6763;48.524;9.044;2024-02-26T06:53:21;95981.75;;;10.34;52.54
13387;BME280;6763;48.524;9.044;2024-02-26T06:55:47;95989.63;;;10.50;52.37
13387;BME280;6763;48.524;9.044;2024-02-26T06:58:12;95971.22;;;10.56;52.04
13387;BME280;6763;48.524;9.044;2024-02-26T07:00:38;95982.16;;;10.80;51.84
13387;BME280;6763;48.524;9.044;2024-02-26T07:03:04;95983.31;;;10.91;51.68
13387;BME280;6763;48.524;9.044;2024-02-26T07:05:29;95977.81;;;10.97;51.15
13387;BME280;6763;48.524;9.044;2024-02-26T07:07:54;95988.44;;;11.10;50.97
13387;BME280;6763;48.524;9.044;2024-02-26T07:10:20;95999.53;;;11.12;50.94
13387;BME280;6763;48.524;9.044;2024-02-26T07:12:46;96002.00;;;11.15;51.31
13387;BME280;6763;48.524;9.044;2024-02-26T07:15:11;95992.69;;;11.11;51.10
13387;BME280;6763;48.524;9.044;2024-02-26T07:17:37;96005.03;;;11.23;50.90
13387;BME280;6763;48.524;9.044;2024-02-26T07:20:03;96003.25;;;11.23;50.89
13387;BME280;6763;48.524;9.044;2024-02-26T07:22:31;96027.63;;;11.37;50.75
13387;BME280;6763;48.524;9.044;2024-02-26T07:24:56;96020.56;;;11.40;50.62
13387;BME280;6763;48.524;9.044;2024-02-26T07:27:21;96020.19;;;11.48;50.38
13387;BME280;6763;48.524;9.044;2024-02-26T07:29:47;96014.31;;;11.44;50.34
13387;BME280;6763;48.524;9.044;2024-02-26T07:32:12;96023.13;;;11.57;50.61
13387;BME280;6763;48.524;9.044;2024-02-26T07:34:37;96031.50;;;11.62;50.30
13387;BME280;6763;48.524;9.044;2024-02-26T07:37:06;96000.91;;;11.53;50.59
13387;BME280;6763;48.524;9.044;2024-02-26T07:39:31;96017.56;;;11.65;50.59
13387;BME280;6763;48.524;9.044;2024-02-26T07:41:57;96015.81;;;11.65;50.54
13387;BME280;6763;48.524;9.044;2024-02-26T07:44:22;96007.97;;;11.67;50.65
13387;BME280;6763;48.524;9.044;2024-02-26T07:46:48;96007.66;;;11.73;50.51
13387;BME280;6763;48.524;9.044;2024-02-26T07:49:13;96000.59;;;11.76;50.36
13387;BME280;6763;48.524;9.044;2024-02-26T07:51:38;96023.88;;;11.94;50.45
13387;BME280;6763;48.524;9.044;2024-02-26T07:54:04;96017.06;;;12.08;50.14
13387;BME280;6763;48.524;9.044;2024-02-26T07:56:29;96023.03;;;12.26;50.25
13387;BME280;6763;48.524;9.044;2024-02-26T07:58:54;96024.03;;;12.39;49.88
13387;BME280;6763;48.524;9.044;2024-02-26T08:01:19;96001.44;;;12.41;49.29
13387;BME280;6763;48.524;9.044;2024-02-26T08:03:45;96002.56;;;12.53;49.33
13387;BME280;6763;48.524;9.044;2024-02-26T08:06:10;95985.56;;;12.47;49.33
13387;BME280;6763;48.524;9.044;2024-02-26T08:08:35;96004.13;;;12.55;49.47
13387;BME280;6763;48.524;9.044;2024-02-26T08:11:00;95992.34;;;12.50;49.90
13387;BME280;6763;48.524;9.044;2024-02-26T08:13:26;95999.75;;;12.56;49.60
13387;BME280;6763;48.524;9.044;2024-02-26T08:15:51;96013.41;;;12.59;49.35
13387;BME280;6763;48.524;9.044;2024-02-26T08:18:17;96004.94;;;12.56;49.64
13387;BME280;6763;48.524;9.044;2024-02-26T08:20:43;96009.66;;;12.65;49.40
13387;BME280;6763;48.524;9.044;2024-02-26T08:23:08;95994.56;;;12.71;48.88
13387;BME280;6763;48.524;9.044;2024-02-26T08:25:33;95981.84;;;12.67;48.45
13387;BME280;6763;48.524;9.044;2024-02-26T08:27:59;95989.31;;;12.73;48.09
13387;BME280;6763;48.524;9.044;2024-02-26T08:30:24;95973.63;;;12.74;47.59
13387;BME280;6763;48.524;9.044;2024-02-26T08:32:49;95983.16;;;12.89;47.22
13387;BME280;6763;48.524;9.044;2024-02-26T08:35:15;95997.09;;;13.02;47.02
13387;BME280;6763;48.524;9.044;2024-02-26T08:37:44;95991.56;;;13.24;46.49
13387;BME280;6763;48.524;9.044;2024-02-26T08:40:10;95967.06;;;13.28;46.87
13387;BME280;6763;48.524;9.044;2024-02-26T08:42:35;95965.63;;;13.52;46.58
13387;BME280;6763;48.524;9.044;2024-02-26T08:45:02;95983.47;;;13.73;46.57
13387;BME280;6763;48.524;9.044;2024-02-26T08:47:27;95984.88;;;13.78;46.11
13387;BME280;6763;48.524;9.044;2024-02-26T08:49:53;95980.81;;;13.74;45.70
13387;BME280;6763;48.524;9.044;2024-02-26T08:52:18;95996.97;;;13.79;45.38
13387;BME280;6763;48.524;9.044;2024-02-26T08:54:43;95988.88;;;13.84;44.92
13387;BME280;6763;48.524;9.044;2024-02-26T08:57:09;95976.44;;;13.89;45.32
13387;BME280;6763;48.524;9.044;2024-02-26T08:59:34;95985.91;;;14.04;44.90
13387;BME280;6763;48.524;9.044;2024-02-26T09:02:00;95985.38;;;14.13;44.90
13387;BME280;6763;48.524;9.044;2024-02-26T09:04:25;95987.56;;;14.19;44.31
13387;BME280;6763;48.524;9.044;2024-02-26T09:06:52;95973.19;;;14.13;44.21
13387;BME280;6763;48.524;9.044;2024-02-26T09:09:17;95989.47;;;14.31;44.70
13387;BME280;6763;48.524;9.044;2024-02-26T09:11:43;95984.41;;;14.28;44.14
13387;BME280;6763;48.524;9.044;2024-02-26T09:14:08;95976.72;;;14.26;44.35
13387;BME280;6763;48.524;9.044;2024-02-26T09:16:33;95991.28;;;14.43;44.18
13387;BME280;6763;48.524;9.044;2024-02-26T09:18:59;95998.53;;;14.52;44.13
13387;BME280;6763;48.524;9.044;2024-02-26T09:21:24;95985.59;;;14.51;44.39
13387;BME280;6763;48.524;9.044;2024-02-26T09:23:51;95982.44;;;14.60;44.37
13387;BME280;6763;48.524;9.044;2024-02-26T09:26:16;95986.38;;;14.79;43.73
13387;BME280;6763;48.524;9.044;2024-02-26T09:28:42;95988.41;;;14.88;43.53
13387;BME280;6763;48.524;9.044;2024-02-26T09:31:07;95995.22;;;15.04;43.54
13387;BME280;6763;48.524;9.044;2024-02-26T09:33:33;95996.81;;;15.19;43.21
13387;BME280;6763;48.524;9.044;2024-02-26T09:35:58;96000.63;;;15.40;42.89
13387;BME280;6763;48.524;9.044;2024-02-26T09:38:26;95996.19;;;15.55;42.62
13387;BME280;6763;48.524;9.044;2024-02-26T09:40:51;96000.38;;;15.82;42.54
13387;BME280;6763;48.524;9.044;2024-02-26T09:43:17;96002.50;;;16.02;42.23
13387;BME280;6763;48.524;9.044;2024-02-26T09:45:46;96012.59;;;16.32;41.58
13387;BME280;6763;48.524;9.044;2024-02-26T09:48:12;96007.13;;;16.60;41.00
13387;BME280;6763;48.524;9.044;2024-02-26T09:50:40;96008.66;;;16.99;40.25
13387;BME280;6763;48.524;9.044;2024-02-26T09:53:08;96010.88;;;17.40;39.60
13387;BME280;6763;48.524;9.044;2024-02-26T09:55:35;96006.94;;;17.69;38.81
13387;BME280;6763;48.524;9.044;2024-02-26T09:58:01;95994.16;;;17.88;38.45
13387;BME280;6763;48.524;9.044;2024-02-26T10:00:31;96023.22;;;18.19;37.30
13387;BME280;6763;48.524;9.044;2024-02-26T10:03:03;96021.34;;;18.21;37.20
13387;BME280;6763;48.524;9.044;2024-02-26T10:05:31;96033.72;;;18.41;36.97
13387;BME280;6763;48.524;9.044;2024-02-26T10:07:57;96016.09;;;18.43;36.58
13387;BME280;6763;48.524;9.044;2024-02-26T10:10:23;96036.81;;;18.68;35.75
13387;BME280;6763;48.524;9.044;2024-02-26T10:12:49;96030.97;;;18.87;35.08
13387;BME280;6763;48.524;9.044;2024-02-26T10:15:14;96016.69;;;18.91;34.32
13387;BME280;6763;48.524;9.044;2024-02-26T10:17:40;96022.72;;;19.02;33.56
13387;BME280;6763;48.524;9.044;2024-02-26T10:20:16;96025.94;;;19.06;33.37
13387;BME280;6763;48.524;9.044;2024-02-26T10:22:48;96013.78;;;19.05;33.13
13387;BME280;6763;48.524;9.044;2024-02-26T10:25:14;96007.44;;;19.07;33.03
13387;BME280;6763;48.524;9.044;2024-02-26T10:27:42;96005.53;;;19.09;32.63
13387;BME280;6763;48.524;9.044;2024-02-26T10:30:19;96006.38;;;19.10;32.17
13387;BME280;6763;48.524;9.044;2024-02-26T10:32:49;96022.69;;;19.13;31.93
13387;BME280;6763;48.524;9.044;2024-02-26T10:35:16;96026.16;;;19.14;31.66
13387;BME280;6763;48.524;9.044;2024-02-26T10:37:43;96013.75;;;19.16;31.74
13387;BME280;6763;48.524;9.044;2024-02-26T10:40:12;96031.22;;;19.38;31.27
13387;BME280;6763;48.524;9.044;2024-02-26T10:42:37;96031.72;;;19.43;31.34
13387;BME280;6763;48.524;9.044;2024-02-26T10:45:09;96024.84;;;19.51;31.02
13387;BME280;6763;48.524;9.044;2024-02-26T10:47:40;96029.34;;;19.60;30.85
13387;BME280;6763;48.524;9.044;2024-02-26T10:50:06;96026.59;;;19.62;30.81
13387;BME280;6763;48.524;9.044;2024-02-26T10:52:33;96029.19;;;19.73;30.73
13387;BME280;6763;48.524;9.044;2024-02-26T10:55:01;96045.19;;;19.91;30.87
13387;BME280;6763;48.524;9.044;2024-02-26T10:57:31;96049.34;;;19.93;30.54
13387;BME280;6763;48.524;9.044;2024-02-26T10:59:57;96039.72;;;20.03;30.33
13387;BME280;6763;48.524;9.044;2024-02-26T11:02:24;96045.22;;;20.21;30.01
13387;BME280;6763;48.524;9.044;2024-02-26T11:04:50;96034.69;;;20.32;29.91
13387;BME280;6763;48.524;9.044;2024-02-26T11:07:16;96039.88;;;20.43;29.94
13387;BME280;6763;48.524;9.044;2024-02-26T11:09:43;96030.69;;;20.37;29.92
13387;BME280;6763;48.524;9.044;2024-02-26T11:12:11;96044.47;;;20.51;29.83
13387;BME280;6763;48.524;9.044;2024-02-26T11:14:42;96030.22;;;20.53;29.53
13387;BME280;6763;48.524;9.044;2024-02-26T11:17:09;96045.66;;;20.67;29.07
13387;BME280;6763;48.524;9.044;2024-02-26T11:19:37;96045.69;;;20.77;28.91
13387;BME280;6763;48.524;9.044;2024-02-26T11:22:04;96036.00;;;20.77;28.77
13387;BME280;6763;48.524;9.044;2024-02-26T11:24:29;96058.50;;;21.00;28.71
13387;BME280;6763;48.524;9.044;2024-02-26T11:26:57;96057.88;;;21.18;28.27
13387;BME280;6763;48.524;9.044;2024-02-26T11:29:26;96037.09;;;21.15;28.21
13387;BME280;6763;48.524;9.044;2024-02-26T11:31:52;96054.44;;;21.27;28.33
13387;BME280;6763;48.524;9.044;2024-02-26T11:34:20;96063.44;;;21.34;28.26
13387;BME280;6763;48.524;9.044;2024-02-26T11:36:46;96042.81;;;21.39;28.08
13387;BME280;6763;48.524;9.044;2024-02-26T11:39:12;96053.50;;;21.76;27.84
13387;BME280;6763;48.524;9.044;2024-02-26T11:41:38;96043.13;;;21.93;27.51
13387;BME280;6763;48.524;9.044;2024-02-26T11:44:03;96041.16;;;22.14;27.00
13387;BME280;6763;48.524;9.044;2024-02-26T11:46:33;96046.34;;;22.34;26.69
13387;BME280;6763;48.524;9.044;2024-02-26T11:49:03;96039.84;;;22.38;26.74
13387;BME280;6763;48.524;9.044;2024-02-26T11:51:33;96048.97;;;22.43;26.72
13387;BME280;6763;48.524;9.044;2024-02-26T11:53:59;96048.44;;;22.40;26.57
13387;BME280;6763;48.524;9.044;2024-02-26T11:56:24;96058.25;;;22.47;26.52
13387;BME280;6763;48.524;9.044;2024-02-26T11:59:05;96064.03;;;22.60;26.42
13387;BME280;6763;48.524;9.044;2024-02-26T12:01:43;96066.69;;;22.60;26.55
13387;BME280;6763;48.524;9.044;2024-02-26T12:04:18;96068.53;;;22.50;26.48
13387;BME280;6763;48.524;9.044;2024-02-26T12:06:50;96065.50;;;22.45;26.49
13387;BME280;6763;48.524;9.044;2024-02-26T12:09:32;96073.75;;;22.60;26.44
13387;BME280;6763;48.524;9.044;2024-02-26T12:11:57;96070.88;;;22.63;26.26
13387;BME280;6763;48.524;9.044;2024-02-26T12:14:26;96061.16;;;22.63;26.24
13387;BME280;6763;48.524;9.044;2024-02-26T12:16:52;96065.44;;;22.55;26.24
13387;BME280;6763;48.524;9.044;2024-02-26T12:19:18;96050.41;;;22.28;26.38
13387;BME280;6763;48.524;9.044;2024-02-26T12:21:44;96067.88;;;22.29;26.48
13387;BME280;6763;48.524;9.044;2024-02-26T12:24:13;96062.34;;;22.22;26.33
13387;BME280;6763;48.524;9.044;2024-02-26T12:26:39;96065.78;;;22.23;26.14
13387;BME280;6763;48.524;9.044;2024-02-26T12:29:05;96054.16;;;22.16;26.15
13387;BME280;6763;48.524;9.044;2024-02-26T12:31:32;96058.31;;;22.18;26.13
13387;BME280;6763;48.524;9.044;2024-02-26T12:33:58;96044.06;;;22.11;26.15
13387;BME280;6763;48.524;9.044;2024-02-26T12:36:24;96053.47;;;22.23;26.31
13387;BME280;6763;48.524;9.044;2024-02-26T12:38:52;96055.38;;;22.31;26.19
13387;BME280;6763;48.524;9.044;2024-02-26T12:41:18;96056.66;;;22.27;26.32
13387;BME280;6763;48.524;9.044;2024-02-26T12:43:43;96053.06;;;22.18;26.40
13387;BME280;6763;48.524;9.044;2024-02-26T12:46:09;96053.06;;;22.18;26.55
13387;BME280;6763;48.524;9.044;2024-02-26T12:48:35;96052.22;;;22.18;26.46
13387;BME280;6763;48.524;9.044;2024-02-26T12:51:01;96055.41;;;22.21;26.46
13387;BME280;6763;48.524;9.044;2024-02-26T12:53:26;96059.44;;;22.26;26.21
13387;BME280;6763;48.524;9.044;2024-02-26T12:55:55;96059.69;;;22.32;26.46
13387;BME280;6763;48.524;9.044;2024-02-26T12:58:22;96073.84;;;22.41;26.23
13387;BME280;6763;48.524;9.044;2024-02-26T13:00:54;96043.16;;;22.40;26.04
13387;BME280;6763;48.524;9.044;2024-02-26T13:03:20;96074.47;;;22.62;26.03
13387;BME280;6763;48.524;9.044;2024-02-26T13:05:46;96072.94;;;22.69;26.05